sensor_id;sensor_type;location;lat;lon;timestamp;pressure;altitude;pressure_sealevel;temperature;humidity
59829;BME280;45708;51.848;107.620;2023-05-08T00:02:14;95510.56;;;19.66;22.92
59829;BME280;45708;51.848;107.620;2023-05-08T00:07:15;95505.03;;;19.20;22.95
59829;BME280;45708;51.848;107.620;2023-05-08T00:12:15;95502.69;;;18.71;23.10
59829;BME280;45708;51.848;107.620;2023-05-08T00:17:16;95498.66;;;19.36;22.51
59829;BME280;45708;51.848;107.620;2023-05-08T00:22:18;95496.28;;;19.50;21.82
59829;BME280;45708;51.848;107.620;2023-05-08T00:27:19;95498.31;;;19.07;22.68
59829;BME280;45708;51.848;107.620;2023-05-08T00:32:19;95498.53;;;20.14;21.79
59829;BME280;45708;51.848;107.620;2023-05-08T00:37:20;95492.81;;;20.77;20.97
59829;BME280;45708;51.848;107.620;2023-05-08T00:42:21;95501.50;;;21.33;20.48
59829;BME280;45708;51.848;107.620;2023-05-08T00:47:22;95500.22;;;21.25;19.97
59829;BME280;45708;51.848;107.620;2023-05-08T00:52:25;95506.34;;;21.36;19.43
59829;BME280;45708;51.848;107.620;2023-05-08T00:57:29;95514.28;;;22.01;18.91
59829;BME280;45708;51.848;107.620;2023-05-08T01:02:32;95512.34;;;22.45;18.78
59829;BME280;45708;51.848;107.620;2023-05-08T01:07:34;95496.88;;;22.27;18.94
59829;BME280;45708;51.848;107.620;2023-05-08T01:13:04;95496.66;;;22.76;18.96
59829;BME280;45708;51.848;107.620;2023-05-08T01:18:31;95495.69;;;23.39;16.96
59829;BME280;45708;51.848;107.620;2023-05-08T01:24:06;95497.00;;;23.65;17.57
59829;BME280;45708;51.848;107.620;2023-05-08T01:34:37;95494.16;;;24.46;16.46
59829;BME280;45708;51.848;107.620;2023-05-08T01:39:44;95499.50;;;24.32;16.48
59829;BME280;45708;51.848;107.620;2023-05-08T01:44:56;95499.38;;;24.05;17.11
59829;BME280;45708;51.848;107.620;2023-05-08T01:50:05;95489.81;;;24.31;16.92
59829;BME280;45708;51.848;107.620;2023-05-08T01:55:11;95491.53;;;23.71;17.03
59829;BME280;45708;51.848;107.620;2023-05-08T02:00:18;95491.72;;;23.93;17.07
59829;BME280;45708;51.848;107.620;2023-05-08T02:05:21;95481.25;;;23.73;17.38
59829;BME280;45708;51.848;107.620;2023-05-08T02:10:25;95483.88;;;23.78;16.83
59829;BME280;45708;51.848;107.620;2023-05-08T02:15:28;95477.16;;;23.56;16.58
59829;BME280;45708;51.848;107.620;2023-05-08T02:20:31;95481.75;;;23.93;16.19
59829;BME280;45708;51.848;107.620;2023-05-08T02:25:32;95479.66;;;23.29;16.25
59829;BME280;45708;51.848;107.620;2023-05-08T02:30:35;95481.78;;;22.31;16.51
59829;BME280;45708;51.848;107.620;2023-05-08T02:35:38;95471.34;;;22.54;16.19
59829;BME280;45708;51.848;107.620;2023-05-08T02:40:53;95479.72;;;22.18;16.30
59829;BME280;45708;51.848;107.620;2023-05-08T02:46:13;95464.34;;;20.86;17.59
59829;BME280;45708;51.848;107.620;2023-05-08T02:56:43;95471.94;;;18.37;19.70
59829;BME280;45708;51.848;107.620;2023-05-08T03:01:51;95472.41;;;17.86;20.45
59829;BME280;45708;51.848;107.620;2023-05-08T03:06:55;95476.94;;;17.86;20.25
59829;BME280;45708;51.848;107.620;2023-05-08T03:12:03;95462.81;;;17.63;20.34
59829;BME280;45708;51.848;107.620;2023-05-08T03:17:08;95459.38;;;17.41;20.97
59829;BME280;45708;51.848;107.620;2023-05-08T03:22:13;95447.97;;;17.73;20.68
59829;BME280;45708;51.848;107.620;2023-05-08T03:27:16;95432.69;;;17.41;20.58
59829;BME280;45708;51.848;107.620;2023-05-08T03:32:17;95448.91;;;17.88;20.42
59829;BME280;45708;51.848;107.620;2023-05-08T03:37:20;95439.03;;;17.94;20.82
59829;BME280;45708;51.848;107.620;2023-05-08T03:42:23;95435.47;;;18.20;20.51
59829;BME280;45708;51.848;107.620;2023-05-08T03:47:24;95431.81;;;18.32;20.43
59829;BME280;45708;51.848;107.620;2023-05-08T03:52:25;95425.81;;;18.14;20.53
59829;BME280;45708;51.848;107.620;2023-05-08T03:57:44;95432.19;;;18.08;20.34
59829;BME280;45708;51.848;107.620;2023-05-08T04:02:56;95415.13;;;18.14;20.08
59829;BME280;45708;51.848;107.620;2023-05-08T04:08:24;95433.66;;;18.26;20.05
59829;BME280;45708;51.848;107.620;2023-05-08T04:13:30;95424.19;;;18.13;19.92
59829;BME280;45708;51.848;107.620;2023-05-08T04:18:35;95407.06;;;18.09;19.98
59829;BME280;45708;51.848;107.620;2023-05-08T04:23:37;95412.53;;;18.24;20.03
59829;BME280;45708;51.848;107.620;2023-05-08T04:28:39;95402.31;;;18.21;19.99
59829;BME280;45708;51.848;107.620;2023-05-08T04:33:42;95396.63;;;18.55;19.94
59829;BME280;45708;51.848;107.620;2023-05-08T04:38:44;95391.97;;;18.88;19.48
59829;BME280;45708;51.848;107.620;2023-05-08T04:43:44;95394.56;;;18.72;19.29
59829;BME280;45708;51.848;107.620;2023-05-08T04:48:47;95366.91;;;18.51;19.51
59829;BME280;45708;51.848;107.620;2023-05-08T04:53:48;95319.47;;;18.32;19.71
59829;BME280;45708;51.848;107.620;2023-05-08T04:58:48;95361.22;;;19.05;19.71
59829;BME280;45708;51.848;107.620;2023-05-08T05:03:49;95354.81;;;19.32;19.66
59829;BME280;45708;51.848;107.620;2023-05-08T05:08:50;95357.50;;;19.37;19.78
59829;BME280;45708;51.848;107.620;2023-05-08T05:13:51;95353.47;;;19.34;19.46
59829;BME280;45708;51.848;107.620;2023-05-08T05:18:52;95343.84;;;19.33;19.41
59829;BME280;45708;51.848;107.620;2023-05-08T05:23:53;95336.34;;;19.51;19.18
59829;BME280;45708;51.848;107.620;2023-05-08T05:28:54;95330.72;;;19.47;19.16
59829;BME280;45708;51.848;107.620;2023-05-08T05:33:55;95332.09;;;19.65;19.28
59829;BME280;45708;51.848;107.620;2023-05-08T05:38:56;95330.44;;;19.49;19.21
59829;BME280;45708;51.848;107.620;2023-05-08T05:43:57;95322.41;;;19.33;19.47
59829;BME280;45708;51.848;107.620;2023-05-08T05:48:58;95305.28;;;19.55;19.54
59829;BME280;45708;51.848;107.620;2023-05-08T05:53:59;95316.50;;;19.52;19.24
59829;BME280;45708;51.848;107.620;2023-05-08T05:59:00;95302.56;;;19.39;19.10
59829;BME280;45708;51.848;107.620;2023-05-08T06:04:00;95305.78;;;19.62;19.19
59829;BME280;45708;51.848;107.620;2023-05-08T06:09:01;95302.03;;;19.83;18.90
59829;BME280;45708;51.848;107.620;2023-05-08T06:14:02;95291.88;;;19.60;19.25
59829;BME280;45708;51.848;107.620;2023-05-08T06:19:03;95283.31;;;19.63;19.45
59829;BME280;45708;51.848;107.620;2023-05-08T06:24:04;95270.44;;;19.65;19.59
59829;BME280;45708;51.848;107.620;2023-05-08T06:29:04;95273.09;;;19.75;19.70
59829;BME280;45708;51.848;107.620;2023-05-08T06:34:05;95278.75;;;19.68;19.80
59829;BME280;45708;51.848;107.620;2023-05-08T06:39:06;95265.81;;;19.81;19.70
59829;BME280;45708;51.848;107.620;2023-05-08T06:44:07;95258.59;;;19.81;19.95
59829;BME280;45708;51.848;107.620;2023-05-08T06:49:08;95263.94;;;19.81;20.04
59829;BME280;45708;51.848;107.620;2023-05-08T06:54:09;95252.16;;;19.82;20.14
59829;BME280;45708;51.848;107.620;2023-05-08T06:59:10;95238.75;;;19.87;19.97
59829;BME280;45708;51.848;107.620;2023-05-08T07:04:10;95245.94;;;19.97;20.19
59829;BME280;45708;51.848;107.620;2023-05-08T07:09:11;95248.84;;;20.11;20.22
59829;BME280;45708;51.848;107.620;2023-05-08T07:14:12;95254.75;;;20.08;20.28
59829;BME280;45708;51.848;107.620;2023-05-08T07:19:13;95241.41;;;19.92;20.27
59829;BME280;45708;51.848;107.620;2023-05-08T07:24:14;95228.09;;;19.67;20.45
59829;BME280;45708;51.848;107.620;2023-05-08T07:29:15;95233.44;;;19.72;20.54
59829;BME280;45708;51.848;107.620;2023-05-08T07:34:16;95225.38;;;19.72;20.43
59829;BME280;45708;51.848;107.620;2023-05-08T07:39:17;95221.66;;;19.58;20.57
59829;BME280;45708;51.848;107.620;2023-05-08T07:44:17;95222.72;;;19.67;20.54
59829;BME280;45708;51.848;107.620;2023-05-08T07:49:18;95223.50;;;19.72;20.33
59829;BME280;45708;51.848;107.620;2023-05-08T07:54:19;95216.78;;;19.75;20.70
59829;BME280;45708;51.848;107.620;2023-05-08T07:59:21;95207.72;;;19.61;20.67
59829;BME280;45708;51.848;107.620;2023-05-08T08:04:22;95209.31;;;19.72;20.74
59829;BME280;45708;51.848;107.620;2023-05-08T08:09:23;95198.53;;;19.87;20.67
59829;BME280;45708;51.848;107.620;2023-05-08T08:14:24;95201.22;;;19.87;20.61
59829;BME280;45708;51.848;107.620;2023-05-08T08:19:24;95190.53;;;19.77;20.57
59829;BME280;45708;51.848;107.620;2023-05-08T08:24:25;95189.53;;;19.63;20.55
59829;BME280;45708;51.848;107.620;2023-05-08T08:29:26;95184.66;;;19.70;20.66
59829;BME280;45708;51.848;107.620;2023-05-08T08:34:27;95176.03;;;19.78;20.59
59829;BME280;45708;51.848;107.620;2023-05-08T08:39:32;95162.38;;;19.80;20.48
59829;BME280;45708;51.848;107.620;2023-05-08T08:44:33;95157.34;;;19.63;20.28
59829;BME280;45708;51.848;107.620;2023-05-08T08:49:35;95163.78;;;19.67;20.14
59829;BME280;45708;51.848;107.620;2023-05-08T08:54:39;95164.84;;;19.61;20.66
59829;BME280;45708;51.848;107.620;2023-05-08T08:59:43;95170.22;;;19.66;20.45
59829;BME280;45708;51.848;107.620;2023-05-08T09:04:44;95159.50;;;19.66;20.47
59829;BME280;45708;51.848;107.620;2023-05-08T09:09:45;95160.56;;;19.65;20.68
59829;BME280;45708;51.848;107.620;2023-05-08T09:14:46;95157.09;;;19.54;20.66
59829;BME280;45708;51.848;107.620;2023-05-08T09:19:48;95161.09;;;19.62;20.75
59829;BME280;45708;51.848;107.620;2023-05-08T09:24:57;95159.78;;;19.54;20.98
59829;BME280;45708;51.848;107.620;2023-05-08T09:30:09;95161.66;;;19.49;20.77
59829;BME280;45708;51.848;107.620;2023-05-08T09:35:10;95158.44;;;19.57;20.87
59829;BME280;45708;51.848;107.620;2023-05-08T09:40:19;95160.53;;;19.70;20.19
59829;BME280;45708;51.848;107.620;2023-05-08T09:45:28;95160.56;;;19.60;20.81
59829;BME280;45708;51.848;107.620;2023-05-08T09:50:30;95149.06;;;19.54;20.77
59829;BME280;45708;51.848;107.620;2023-05-08T09:55:45;95146.72;;;19.27;20.85
59829;BME280;45708;51.848;107.620;2023-05-08T10:00:46;95159.84;;;19.24;20.67
59829;BME280;45708;51.848;107.620;2023-05-08T10:05:47;95153.19;;;19.06;20.91
59829;BME280;45708;51.848;107.620;2023-05-08T10:10:48;95150.50;;;19.01;20.98
59829;BME280;45708;51.848;107.620;2023-05-08T10:15:53;95147.56;;;18.92;21.21
59829;BME280;45708;51.848;107.620;2023-05-08T10:20:54;95147.56;;;18.77;21.50
59829;BME280;45708;51.848;107.620;2023-05-08T10:26:05;95134.47;;;18.70;21.22
59829;BME280;45708;51.848;107.620;2023-05-08T10:31:07;95155.59;;;18.77;21.39
59829;BME280;45708;51.848;107.620;2023-05-08T10:36:11;95150.50;;;18.50;21.53
59829;BME280;45708;51.848;107.620;2023-05-08T10:41:13;95162.53;;;18.47;21.77
59829;BME280;45708;51.848;107.620;2023-05-08T10:52:06;95156.34;;;18.37;21.90
59829;BME280;45708;51.848;107.620;2023-05-08T10:57:10;95148.03;;;18.13;22.04
59829;BME280;45708;51.848;107.620;2023-05-08T11:02:12;95161.66;;;18.11;22.41
59829;BME280;45708;51.848;107.620;2023-05-08T11:07:13;95146.13;;;17.93;22.54
59829;BME280;45708;51.848;107.620;2023-05-08T11:12:25;95150.06;;;17.75;22.66
59829;BME280;45708;51.848;107.620;2023-05-08T11:17:27;95152.94;;;17.63;22.71
59829;BME280;45708;51.848;107.620;2023-05-08T11:22:32;95157.66;;;17.46;23.10
59829;BME280;45708;51.848;107.620;2023-05-08T11:32:56;95160.66;;;17.08;23.07
59829;BME280;45708;51.848;107.620;2023-05-08T11:38:34;95163.44;;;16.86;23.37
59829;BME280;45708;51.848;107.620;2023-05-08T11:44:20;95162.13;;;16.61;23.39
59829;BME280;45708;51.848;107.620;2023-05-08T11:49:25;95160.09;;;16.41;24.27
59829;BME280;45708;51.848;107.620;2023-05-08T11:54:29;95158.88;;;16.22;24.26
59829;BME280;45708;51.848;107.620;2023-05-08T11:59:34;95163.50;;;16.05;24.32
59829;BME280;45708;51.848;107.620;2023-05-08T12:04:44;95165.69;;;15.86;24.73
59829;BME280;45708;51.848;107.620;2023-05-08T12:09:45;95171.91;;;15.70;24.60
59829;BME280;45708;51.848;107.620;2023-05-08T12:14:49;95169.69;;;15.62;24.90
59829;BME280;45708;51.848;107.620;2023-05-08T12:19:53;95162.34;;;15.52;24.91
59829;BME280;45708;51.848;107.620;2023-05-08T12:24:54;95179.84;;;15.48;25.15
59829;BME280;45708;51.848;107.620;2023-05-08T12:29:56;95165.22;;;15.29;25.25
59829;BME280;45708;51.848;107.620;2023-05-08T12:34:57;95176.53;;;15.19;25.42
59829;BME280;45708;51.848;107.620;2023-05-08T12:39:59;95191.94;;;15.00;25.80
59829;BME280;45708;51.848;107.620;2023-05-08T12:45:00;95193.66;;;14.89;25.90
59829;BME280;45708;51.848;107.620;2023-05-08T12:50:01;95199.97;;;14.83;26.01
59829;BME280;45708;51.848;107.620;2023-05-08T12:55:02;95198.00;;;14.79;26.01
59829;BME280;45708;51.848;107.620;2023-05-08T13:00:04;95202.50;;;14.61;26.26
59829;BME280;45708;51.848;107.620;2023-05-08T13:05:05;95217.34;;;14.57;26.51
59829;BME280;45708;51.848;107.620;2023-05-08T13:10:07;95210.75;;;14.43;27.06
59829;BME280;45708;51.848;107.620;2023-05-08T13:15:08;95223.09;;;14.38;26.92
59829;BME280;45708;51.848;107.620;2023-05-08T13:20:09;95235.28;;;13.93;28.01
59829;BME280;45708;51.848;107.620;2023-05-08T13:25:10;95253.94;;;13.00;30.35
59829;BME280;45708;51.848;107.620;2023-05-08T13:30:12;95255.66;;;12.94;29.55
59829;BME280;45708;51.848;107.620;2023-05-08T13:35:12;95258.91;;;12.85;29.79
59829;BME280;45708;51.848;107.620;2023-05-08T13:40:14;95248.25;;;12.73;29.90
59829;BME280;45708;51.848;107.620;2023-05-08T13:45:16;95253.09;;;12.64;29.93
59829;BME280;45708;51.848;107.620;2023-05-08T13:50:17;95249.47;;;12.47;29.74
59829;BME280;45708;51.848;107.620;2023-05-08T13:55:18;95251.84;;;12.37;29.89
59829;BME280;45708;51.848;107.620;2023-05-08T14:00:19;95260.06;;;12.47;30.59
59829;BME280;45708;51.848;107.620;2023-05-08T14:05:20;95264.38;;;12.71;29.94
59829;BME280;45708;51.848;107.620;2023-05-08T14:10:21;95266.78;;;12.61;30.05
59829;BME280;45708;51.848;107.620;2023-05-08T14:15:22;95253.28;;;12.51;30.12
59829;BME280;45708;51.848;107.620;2023-05-08T14:20:23;95285.53;;;12.48;30.57
59829;BME280;45708;51.848;107.620;2023-05-08T14:25:24;95279.13;;;12.26;31.01
59829;BME280;45708;51.848;107.620;2023-05-08T14:30:24;95279.41;;;12.17;30.66
59829;BME280;45708;51.848;107.620;2023-05-08T14:35:25;95293.19;;;12.08;31.36
59829;BME280;45708;51.848;107.620;2023-05-08T14:40:26;95299.44;;;11.95;31.12
59829;BME280;45708;51.848;107.620;2023-05-08T14:45:27;95309.41;;;11.81;31.50
59829;BME280;45708;51.848;107.620;2023-05-08T14:50:28;95306.78;;;11.56;31.89
59829;BME280;45708;51.848;107.620;2023-05-08T14:55:30;95318.09;;;11.20;33.11
59829;BME280;45708;51.848;107.620;2023-05-08T15:00:30;95305.41;;;10.79;33.36
59829;BME280;45708;51.848;107.620;2023-05-08T15:05:31;95312.75;;;10.46;34.40
59829;BME280;45708;51.848;107.620;2023-05-08T15:10:32;95324.97;;;10.40;34.76
59829;BME280;45708;51.848;107.620;2023-05-08T15:15:33;95321.44;;;10.53;34.73
59829;BME280;45708;51.848;107.620;2023-05-08T15:20:34;95321.22;;;10.54;34.53
59829;BME280;45708;51.848;107.620;2023-05-08T15:25:34;95320.94;;;10.69;34.11
59829;BME280;45708;51.848;107.620;2023-05-08T15:30:35;95302.41;;;11.01;33.66
59829;BME280;45708;51.848;107.620;2023-05-08T15:35:36;95307.22;;;11.10;34.14
59829;BME280;45708;51.848;107.620;2023-05-08T15:40:37;95308.56;;;10.94;34.18
59829;BME280;45708;51.848;107.620;2023-05-08T15:45:38;95308.69;;;10.81;34.22
59829;BME280;45708;51.848;107.620;2023-05-08T15:50:39;95307.13;;;10.67;34.46
59829;BME280;45708;51.848;107.620;2023-05-08T15:55:40;95303.78;;;10.53;34.50
59829;BME280;45708;51.848;107.620;2023-05-08T16:00:40;95302.38;;;10.51;35.06
59829;BME280;45708;51.848;107.620;2023-05-08T16:05:41;95298.78;;;10.70;34.49
59829;BME280;45708;51.848;107.620;2023-05-08T16:10:42;95300.78;;;11.00;33.95
59829;BME280;45708;51.848;107.620;2023-05-08T16:15:43;95293.88;;;10.98;33.89
59829;BME280;45708;51.848;107.620;2023-05-08T16:20:45;95285.84;;;11.12;33.74
59829;BME280;45708;51.848;107.620;2023-05-08T16:25:46;95282.03;;;11.08;33.70
59829;BME280;45708;51.848;107.620;2023-05-08T16:30:47;95296.22;;;10.88;33.98
59829;BME280;45708;51.848;107.620;2023-05-08T16:35:47;95306.03;;;10.50;34.35
59829;BME280;45708;51.848;107.620;2023-05-08T16:40:48;95314.81;;;9.92;36.68
59829;BME280;45708;51.848;107.620;2023-05-08T16:45:49;95318.22;;;9.35;37.94
59829;BME280;45708;51.848;107.620;2023-05-08T16:50:50;95321.69;;;8.89;38.88
59829;BME280;45708;51.848;107.620;2023-05-08T16:55:52;95314.16;;;8.60;39.47
59829;BME280;45708;51.848;107.620;2023-05-08T17:00:53;95299.75;;;8.36;40.59
59829;BME280;45708;51.848;107.620;2023-05-08T17:05:53;95301.88;;;8.06;41.21
59829;BME280;45708;51.848;107.620;2023-05-08T17:10:54;95318.19;;;7.81;41.46
59829;BME280;45708;51.848;107.620;2023-05-08T17:15:56;95301.69;;;7.59;41.62
59829;BME280;45708;51.848;107.620;2023-05-08T17:20:57;95304.97;;;7.68;41.31
59829;BME280;45708;51.848;107.620;2023-05-08T17:25:58;95300.63;;;7.47;41.74
59829;BME280;45708;51.848;107.620;2023-05-08T17:30:59;95304.56;;;7.30;41.71
59829;BME280;45708;51.848;107.620;2023-05-08T17:36:00;95308.28;;;7.14;42.40
59829;BME280;45708;51.848;107.620;2023-05-08T17:41:01;95304.00;;;7.07;42.56
59829;BME280;45708;51.848;107.620;2023-05-08T17:46:02;95306.34;;;6.95;42.52
59829;BME280;45708;51.848;107.620;2023-05-08T17:51:03;95295.00;;;6.88;43.24
59829;BME280;45708;51.848;107.620;2023-05-08T17:56:04;95297.22;;;6.91;42.47
59829;BME280;45708;51.848;107.620;2023-05-08T18:01:05;95297.22;;;6.91;42.53
59829;BME280;45708;51.848;107.620;2023-05-08T18:06:06;95297.63;;;6.88;42.81
59829;BME280;45708;51.848;107.620;2023-05-08T18:11:22;95292.34;;;6.88;42.80
59829;BME280;45708;51.848;107.620;2023-05-08T18:16:23;95293.56;;;6.85;43.12
59829;BME280;45708;51.848;107.620;2023-05-08T18:21:24;95278.63;;;6.86;42.93
59829;BME280;45708;51.848;107.620;2023-05-08T18:26:25;95279.84;;;6.90;43.50
59829;BME280;45708;51.848;107.620;2023-05-08T18:31:25;95280.97;;;6.81;43.48
59829;BME280;45708;51.848;107.620;2023-05-08T18:36:26;95276.88;;;6.71;43.88
59829;BME280;45708;51.848;107.620;2023-05-08T18:41:27;95273.03;;;6.67;44.26
59829;BME280;45708;51.848;107.620;2023-05-08T18:46:28;95278.91;;;6.48;44.99
59829;BME280;45708;51.848;107.620;2023-05-08T18:51:28;95284.94;;;6.21;45.18
59829;BME280;45708;51.848;107.620;2023-05-08T18:56:29;95278.63;;;6.00;45.93
59829;BME280;45708;51.848;107.620;2023-05-08T19:01:30;95280.28;;;6.01;45.73
59829;BME280;45708;51.848;107.620;2023-05-08T19:06:31;95288.25;;;5.93;45.69
59829;BME280;45708;51.848;107.620;2023-05-08T19:11:32;95294.97;;;5.81;45.50
59829;BME280;45708;51.848;107.620;2023-05-08T19:16:33;95290.63;;;5.59;45.77
59829;BME280;45708;51.848;107.620;2023-05-08T19:21:33;95306.13;;;5.24;46.60
59829;BME280;45708;51.848;107.620;2023-05-08T19:26:34;95304.19;;;4.88;47.15
59829;BME280;45708;51.848;107.620;2023-05-08T19:31:35;95303.28;;;4.58;48.42
59829;BME280;45708;51.848;107.620;2023-05-08T19:36:36;95307.38;;;4.15;50.19
59829;BME280;45708;51.848;107.620;2023-05-08T19:41:37;95315.38;;;3.91;50.59
59829;BME280;45708;51.848;107.620;2023-05-08T19:46:37;95299.44;;;3.78;51.04
59829;BME280;45708;51.848;107.620;2023-05-08T19:51:38;95311.69;;;3.77;50.78
59829;BME280;45708;51.848;107.620;2023-05-08T19:56:39;95312.13;;;3.89;50.71
59829;BME280;45708;51.848;107.620;2023-05-08T20:01:40;95318.63;;;3.93;50.56
59829;BME280;45708;51.848;107.620;2023-05-08T20:06:41;95313.47;;;3.85;50.45
59829;BME280;45708;51.848;107.620;2023-05-08T20:11:42;95301.41;;;3.76;51.07
59829;BME280;45708;51.848;107.620;2023-05-08T20:16:42;95312.69;;;3.76;50.83
59829;BME280;45708;51.848;107.620;2023-05-08T20:21:43;95318.13;;;3.66;51.47
59829;BME280;45708;51.848;107.620;2023-05-08T20:26:44;95317.44;;;3.73;51.32
59829;BME280;45708;51.848;107.620;2023-05-08T20:31:45;95301.81;;;3.64;51.23
59829;BME280;45708;51.848;107.620;2023-05-08T20:36:47;95305.72;;;3.69;50.51
59829;BME280;45708;51.848;107.620;2023-05-08T20:41:48;95298.22;;;3.65;50.81
59829;BME280;45708;51.848;107.620;2023-05-08T20:46:48;95295.81;;;3.56;51.70
59829;BME280;45708;51.848;107.620;2023-05-08T20:51:49;95294.19;;;3.55;51.68
59829;BME280;45708;51.848;107.620;2023-05-08T20:56:50;95290.41;;;3.57;52.77
59829;BME280;45708;51.848;107.620;2023-05-08T21:01:51;95294.25;;;3.39;54.13
59829;BME280;45708;51.848;107.620;2023-05-08T21:06:51;95293.31;;;3.31;52.87
59829;BME280;45708;51.848;107.620;2023-05-08T21:11:52;95298.00;;;3.44;52.60
59829;BME280;45708;51.848;107.620;2023-05-08T21:16:53;95293.13;;;3.41;53.04
59829;BME280;45708;51.848;107.620;2023-05-08T21:21:54;95287.38;;;3.38;52.45
59829;BME280;45708;51.848;107.620;2023-05-08T21:26:54;95291.66;;;3.30;52.33
59829;BME280;45708;51.848;107.620;2023-05-08T21:31:55;95291.53;;;3.24;52.74
59829;BME280;45708;51.848;107.620;2023-05-08T21:36:56;95288.59;;;3.19;52.36
59829;BME280;45708;51.848;107.620;2023-05-08T21:41:57;95300.72;;;3.12;52.68
59829;BME280;45708;51.848;107.620;2023-05-08T21:46:57;95298.13;;;3.03;52.62
59829;BME280;45708;51.848;107.620;2023-05-08T21:51:58;95296.16;;;2.97;53.25
59829;BME280;45708;51.848;107.620;2023-05-08T21:56:59;95302.41;;;2.88;54.04
59829;BME280;45708;51.848;107.620;2023-05-08T22:02:00;95311.19;;;2.79;54.72
59829;BME280;45708;51.848;107.620;2023-05-08T22:07:01;95310.59;;;2.61;55.74
59829;BME280;45708;51.848;107.620;2023-05-08T22:12:01;95308.31;;;2.66;55.27
59829;BME280;45708;51.848;107.620;2023-05-08T22:17:02;95304.34;;;3.02;54.64
59829;BME280;45708;51.848;107.620;2023-05-08T22:22:03;95307.63;;;3.44;52.68
59829;BME280;45708;51.848;107.620;2023-05-08T22:27:04;95306.78;;;3.82;52.00
59829;BME280;45708;51.848;107.620;2023-05-08T22:32:05;95306.91;;;5.39;48.82
59829;BME280;45708;51.848;107.620;2023-05-08T22:37:05;95298.69;;;6.72;45.24
59829;BME280;45708;51.848;107.620;2023-05-08T22:42:06;95318.91;;;7.27;44.13
59829;BME280;45708;51.848;107.620;2023-05-08T22:47:09;95325.94;;;7.55;42.98
59829;BME280;45708;51.848;107.620;2023-05-08T22:52:12;95319.53;;;7.64;42.74
59829;BME280;45708;51.848;107.620;2023-05-08T22:57:13;95310.91;;;9.37;40.22
59829;BME280;45708;51.848;107.620;2023-05-08T23:02:13;95303.78;;;10.53;37.04
59829;BME280;45708;51.848;107.620;2023-05-08T23:07:14;95312.06;;;10.25;36.87
59829;BME280;45708;51.848;107.620;2023-05-08T23:12:15;95319.16;;;10.63;36.91
59829;BME280;45708;51.848;107.620;2023-05-08T23:17:16;95325.66;;;11.85;33.78
59829;BME280;45708;51.848;107.620;2023-05-08T23:22:17;95315.91;;;11.97;33.85
59829;BME280;45708;51.848;107.620;2023-05-08T23:27:17;95312.78;;;13.20;32.37
59829;BME280;45708;51.848;107.620;2023-05-08T23:32:18;95295.53;;;14.73;30.34
59829;BME280;45708;51.848;107.620;2023-05-08T23:37:19;95305.88;;;15.70;28.83
59829;BME280;45708;51.848;107.620;2023-05-08T23:42:20;95307.44;;;15.88;28.92
59829;BME280;45708;51.848;107.620;2023-05-08T23:47:20;95304.78;;;16.10;28.64
59829;BME280;45708;51.848;107.620;2023-05-08T23:52:21;95296.22;;;16.79;27.67
59829;BME280;45708;51.848;107.620;2023-05-08T23:57:22;95290.72;;;16.85;26.93
